首页
METAR-TAF:

METAR-TAF

机场 :

Morristown, 田纳西州, 美国

纬度: 36-10-46N, 经度: 083-22-32W, 海拔: 400米

当前天气观测

该预报发布于6分钟前的15:55 UTC
风速3节,风向北转东北
温度 25°C
湿度 89%
气压 1019 hPa
能見度: 14.5公里
多云层高于1500英尺

METAR: KMOR 161555Z AUTO 02003KT 9SM BKN015 25/23 A3009 RMK A01

时间: 11:01 (16:01 UTC)


TAF: 丢失

超过4000个机场的气象观测和天气预报(METAR&TAF报告)。

可查询的气象台以黄色和红色小点在地图上表示。

将鼠标移到小点上方,可查看气象台名称。

然后点击查看天气观测和预报。

如需切换地图:点击带黑十字的绿色按钮放大地图;点击带横线的绿色按钮缩小地图;或者点击绿色箭头查看邻近地区的地图。


METAR-TAF: